• Join FlightAware (Why Join?)
  • Login
  • US Flag 
11:10PM EDT


 

Airport Tracker/Info


-or-


 

Live Flight TrackerFlight Track Log ✈ N411PK ✈ 31-May-2013 ✈ KCMH - KFDK

Flight Track Log - Related Links

Times and Time Zones

All times are in EDT time to prevent confusion due to time zone crossing. See the N411PK flight status page for this flight to view local times or setup timezone preferences in your user account.

Time Position Orientation Groundspeed Altitude Reporting Facility
EDT Latitude Longitude Course Direction KTS MPH feet Rate Location/Type
02:36PM 39.8142 -83.5050 95° East 177 204 3,500  Level Indianapolis Center
02:37PM 39.8089 -83.4339 95° East 177 204 3,500  Level Indianapolis Center
02:38PM 39.8094 -83.3686 89° East 175 201 3,500  Level Indianapolis Center
02:39PM 39.8056 -83.3058 95° East 173 199 3,500  Level Indianapolis Center
02:40PM 39.8014 -83.2456 95° East 171 197 3,500  Level Indianapolis Center
02:41PM 39.7997 -83.1803 92° East 180 207 3,500  Level Indianapolis Center
02:42PM 39.7983 -83.1122 91° East 174 200 3,500  Level Indianapolis Center
02:43PM 39.7964 -83.0494 92° East 176 203 3,500  Level Indianapolis Center
02:44PM 39.7922 -82.9867 95° East 176 203 3,500  Level Indianapolis Center
02:45PM 39.7903 -82.9242 92° East 177 204 3,500  Level Indianapolis Center
02:46PM 39.7881 -82.8614 93° East 176 203 3,500  Level Indianapolis Center
02:47PM 39.7844 -82.7931 94° East 175 201 3,500  Level Indianapolis Center
02:48PM 39.7806 -82.7250 94° East 176 203 3,500  Level Indianapolis Center
02:49PM 39.7783 -82.6622 93° East 173 199 3,500  Level Indianapolis Center
02:50PM 39.7764 -82.5942 92° East 175 201 3,500  Level Indianapolis Center
02:52PM 39.7711 -82.5192 95° East 177 204 3,500  Level Indianapolis Center
02:52PM 39.7700 -82.4689 92° East 174 200 3,500  Level Indianapolis Center
02:54PM 39.7661 -82.3953 94° East 170 196 3,500  Level Indianapolis Center
02:55PM 39.7614 -82.3336 96° East 170 196 3,500 240 Level Indianapolis Center
02:56PM 39.7597 -82.2725 92° East 169 194 4,000 540 Climbing Indianapolis Center
02:57PM 39.7572 -82.2192 93° East 152 175 4,700 540 Climbing Indianapolis Center
02:58PM 39.7544 -82.1661 94° East 147 169 5,200 360 Climbing Indianapolis Center
02:59PM 39.7531 -82.1100 92° East 152 175 5,500 120 Climbing Indianapolis Center
03:00PM 39.7467 -82.0367 96° East 172 198 5,500  Level Indianapolis Center
03:01PM 39.7450 -81.9717 92° East 177 204 5,500  Level Indianapolis Center
03:02PM 39.7417 -81.9069 94° East 178 205 5,500  Level Indianapolis Center
03:03PM 39.7386 -81.8450 94° East 171 197 5,500  Level Indianapolis Center
03:04PM 39.7350 -81.7803 94° East 177 204 5,500  Level Indianapolis Center
03:05PM 39.7311 -81.7183 95° East 172 198 5,500 -60 Level Indianapolis Center
03:06PM 39.7281 -81.6536 93° East 177 204 5,400 -60 Descending Indianapolis Center
03:07PM 39.7247 -81.5889 94° East 178 205 5,400  Level Indianapolis Center
03:08PM 39.7217 -81.5242 93° East 178 205 5,400  Level Indianapolis Center
03:09PM 39.7161 -81.4489 95° East 178 205 5,400  Level Indianapolis Center
03:10PM 39.7139 -81.3897 93° East 173 199 5,400  Level Indianapolis Center
03:11PM 39.7094 -81.3256 95° East 176 203 5,400  Level Indianapolis Center
03:12PM 39.7067 -81.2619 93° East 177 204 5,400  Level Indianapolis Center
03:13PM 39.7033 -81.1978 94° East 177 204 5,400  Level Indianapolis Center
03:14PM 39.6983 -81.1350 96° East 177 204 5,400  Level Indianapolis Center
03:15PM 39.6939 -81.0578 94° East 177 204 5,500  Climbing Indianapolis Center
03:16PM 39.6900 -80.9947 95° East 176 203 5,500  Level Indianapolis Center
03:17PM 39.6861 -80.9308 95° East 176 203 5,500 -60 Level Indianapolis Center
03:19PM 39.6833 -80.8097 92° East 178 205 5,400  Descending Cleveland Center
03:20PM 39.6814 -80.7475 92° East 178 205 5,500 60 Climbing Cleveland Center
03:21PM 39.6753 -80.6828 97° East 178 205 5,600  Climbing Cleveland Center
03:22PM 39.6731 -80.6236 93° East 178 205 5,600  Level Cleveland Center
03:23PM 39.6689 -80.5614 95° East 178 205 5,600  Level Cleveland Center
03:25PM 39.6631 -80.4980 95° East  Level FlightAware Approximate
03:32PM 39.6356 -80.1063 95° East  Level FlightAware Approximate
03:33PM 39.6315 -80.0504 95° East  Level FlightAware Approximate
03:34PM 39.6274 -79.9945 95° East  Level FlightAware Approximate
03:35PM 39.6233 -79.9386 95° East  Level FlightAware Approximate
03:36PM 39.6192 -79.8827 95° East  Level FlightAware Approximate
03:37PM 39.6151 -79.8267 95° East  Level FlightAware Approximate
03:38PM 39.6109 -79.7708 96° East  Level FlightAware Approximate
03:39PM 39.6067 -79.7150 96° East  Level FlightAware Approximate
03:39PM 39.5956 -79.5539 96° East 170 196 5,600  Level Cleveland Center
03:40PM 39.6025 -79.6591 96° East  Level FlightAware Approximate
03:40PM 39.5933 -79.5353 99° East 170 196 5,600  Level Cleveland Center
03:41PM 39.5982 -79.6032 96° East  Level FlightAware Approximate
03:41PM 39.5886 -79.4678 95° East 170 196 5,500  Level Cleveland Center
03:42PM 39.5939 -79.5473 96° East  Level FlightAware Approximate
03:42PM 39.5858 -79.4061 93° East 174 200 5,500  Level Cleveland Center
03:43PM 39.5896 -79.4915 96° East  Level FlightAware Approximate
03:43PM 39.5811 -79.3442 96° East 175 201 5,500  Level Cleveland Center
03:44PM 39.5853 -79.4356 96° East  Level FlightAware Approximate
03:44PM 39.5761 -79.2850 96° East 174 200 5,500  Level Cleveland Center
03:45PM 39.5809 -79.3798 96° East  Level FlightAware Approximate
03:45PM 39.5711 -79.2150 95° East 173 199 5,500  Level Cleveland Center
03:46PM 39.5661 -79.1533 96° East 173 199 5,500  Level Cleveland Center
03:47PM 39.5633 -79.0886 93° East 176 203 5,500  Level Cleveland Center
03:48PM 39.5564 -79.0294 99° East 174 200 5,500  Level Cleveland Center
03:49PM 39.5511 -78.9625 96° East 172 198 5,500  Level Cleveland Center
03:50PM 39.5483 -78.9033 93° East 170 196 5,500  Level Cleveland Center
03:51PM 39.5411 -78.8469 99° East 170 196 5,500  Level Cleveland Center
03:52PM 39.5381 -78.7822 93° East 173 199 5,500 -60 Level Cleveland Center
03:53PM 39.5333 -78.7264 96° East 192 221 5,400 -60 Descending Washington Center
03:54PM 39.5286 -78.6642 96° East 198 228 5,400  Level Washington Center
03:55PM 39.5239 -78.6022 96° East 184 212 5,400 60 Level Washington Center
03:56PM 39.5169 -78.5453 99° East 171 197 5,600  Climbing Washington Center
03:57PM 39.5122 -78.4833 96° East 171 197 5,500 -60 Descending Washington Center
03:58PM 39.5075 -78.4239 96° East 166 191 5,500  Level Washington Center
03:59PM 39.5028 -78.3619 96° East 166 191 5,600  Climbing Washington Center
04:00PM 39.4978 -78.2997 96° East 166 191 5,500 -60 Descending Washington Center
04:01PM 39.4931 -78.2350 95° East 166 191 5,500  Level Washington Center
04:02PM 39.4861 -78.1731 98° East 166 191 5,500  Level Washington Center
04:03PM 39.4811 -78.1108 96° East 166 191 5,500  Level Washington Center
04:04PM 39.4742 -78.0461 98° East 166 191 5,500  Level Washington Center
04:05PM 39.4692 -77.9814 96° East 171 197 5,500  Level Washington Center
04:06PM 39.4642 -77.9194 96° East 171 197 5,500 -180 Level Washington Center
04:08PM 39.4500 -77.8167 100° East 172 198 5,100 -420 Descending Potomac TRACON
04:09PM 39.4500 -77.7500 90° East 175 201 4,500 -600 Descending Potomac TRACON
04:10PM 39.4500 -77.6833 90° East 178 205 4,000 -540 Descending Potomac TRACON
04:12PM 39.4324 -77.5786 104° East  Level FlightAware Approximate
04:19PM 39.4167 -77.3667 90° East  Level FlightAware Approximate
04:20PM 39.4176 -77.3743 90° East  Level Estimated
04:21PM 39.4167 -77.3667 90° East  Level FlightAware Approximate
04:22PM 39.4176 -77.3743 90° East  Level Estimated
04:23PM 39.4167 -77.3667 90° East  Level FlightAware Approximate
04:24PM 39.4176 -77.3743 90° East  Level Estimated
04:25PM 39.4167 -77.3667 90° East  Level FlightAware Approximate
04:26PM 39.4176 -77.3743 90° East  Level Estimated
04:27PM 39.4167 -77.3667 90° East  Level FlightAware Approximate
04:28PM 39.4176 -77.3743 90° East  Level Estimated
04:29PM 39.4167 -77.3667 90° East  Level FlightAware Approximate
04:30PM 39.4176 -77.3743 90° East  Level Estimated
04:31PM 39.4167 -77.3667 90° East  Level FlightAware Approximate
04:32PM 39.4176 -77.3743 90° East  Level Estimated
04:33PM 39.4167 -77.3667 90° East  Level FlightAware Approximate
04:34PM 39.4176 -77.3743 90° East  Level Estimated
04:35PM 39.4167 -77.3667 90° East  Level FlightAware Approximate